TAX1612 LPPR-LPFR
Flight info
| Callsign | TAX1612 |
|---|---|
| Flight time | N/A |
| Altitude | 37000 |
| Route | MANIK DCT INBOM DCT ALAGU ALAGU8A/28 |
| Aircraft | A320/M-SDE3FGHIRWY/LB1 |
Departure
| Time | N/A |
|---|---|
| Airport | Francisco de Sá Carneiro Airport (LPPR) |
Arrival
| Time | 2026-05-03 20:26 |
|---|---|
| Airport | Faro - Gago Coutinho International Airport (LPFR) |
| Time | Latitude | Longitude | Altitude | Speed | Heading |
|---|---|---|---|---|---|
| 2026-05-03 20:15 | 37.33018 | -7.68473 | 10744 ft | 321 kts | 182° |
| 2026-05-03 20:15 | 37.30795 | -7.68413 | 10328 ft | 318 kts | 182° |
| 2026-05-03 20:15 | 37.28680 | -7.68356 | 10200 ft | 306 kts | 181° |
| 2026-05-03 20:15 | 37.26588 | -7.68294 | 10079 ft | 295 kts | 182° |
| 2026-05-03 20:16 | 37.24568 | -7.68235 | 9831 ft | 288 kts | 182° |
| 2026-05-03 20:16 | 37.22552 | -7.68186 | 9386 ft | 288 kts | 182° |
| 2026-05-03 20:16 | 37.20573 | -7.68139 | 9080 ft | 283 kts | 182° |
| 2026-05-03 20:16 | 37.18617 | -7.68088 | 8561 ft | 278 kts | 182° |
| 2026-05-03 20:17 | 37.16691 | -7.68036 | 7897 ft | 276 kts | 182° |
| 2026-05-03 20:17 | 37.14776 | -7.67985 | 7367 ft | 273 kts | 182° |
| 2026-05-03 20:17 | 37.13540 | -7.67950 | 7281 ft | 261 kts | 182° |
| 2026-05-03 20:17 | 37.11207 | -7.67885 | 7061 ft | 245 kts | 182° |
| 2026-05-03 20:18 | 37.10079 | -7.67857 | 6877 ft | 243 kts | 181° |
| 2026-05-03 20:18 | 37.08393 | -7.67818 | 6589 ft | 242 kts | 183° |
| 2026-05-03 20:18 | 37.06727 | -7.67777 | 6166 ft | 239 kts | 182° |
| 2026-05-03 20:18 | 37.04532 | -7.67719 | 5474 ft | 238 kts | 181° |
| 2026-05-03 20:19 | 37.03437 | -7.67689 | 5145 ft | 237 kts | 181° |
| 2026-05-03 20:19 | 37.01827 | -7.67643 | 4924 ft | 224 kts | 182° |
| 2026-05-03 20:19 | 37.00309 | -7.67606 | 4794 ft | 208 kts | 185° |
| 2026-05-03 20:19 | 36.99001 | -7.68054 | 4596 ft | 194 kts | 216° |
| 2026-05-03 20:20 | 36.98079 | -7.69240 | 4243 ft | 192 kts | 247° |
| 2026-05-03 20:20 | 36.97776 | -7.70813 | 3994 ft | 182 kts | 274° |
| 2026-05-03 20:20 | 36.97960 | -7.72334 | 3749 ft | 174 kts | 281° |
| 2026-05-03 20:20 | 36.98242 | -7.74262 | 3444 ft | 166 kts | 281° |
| 2026-05-03 20:21 | 36.98380 | -7.75209 | 3303 ft | 162 kts | 281° |
| 2026-05-03 20:21 | 36.98577 | -7.76577 | 3082 ft | 157 kts | 281° |
| 2026-05-03 20:21 | 36.98768 | -7.77903 | 2878 ft | 154 kts | 281° |
| 2026-05-03 20:21 | 36.98954 | -7.79193 | 2678 ft | 151 kts | 282° |
| 2026-05-03 20:22 | 36.99137 | -7.80465 | 2478 ft | 148 kts | 282° |
| 2026-05-03 20:22 | 36.99318 | -7.81724 | 2281 ft | 146 kts | 282° |
| 2026-05-03 20:22 | 36.99496 | -7.82966 | 2084 ft | 145 kts | 283° |
| 2026-05-03 20:22 | 36.99674 | -7.84205 | 1881 ft | 144 kts | 283° |
| 2026-05-03 20:23 | 36.99849 | -7.85427 | 1704 ft | 142 kts | 281° |
| 2026-05-03 20:23 | 37.00022 | -7.86635 | 1502 ft | 140 kts | 282° |
| 2026-05-03 20:23 | 37.00190 | -7.87812 | 1313 ft | 134 kts | 282° |
| 2026-05-03 20:23 | 37.00350 | -7.88931 | 1152 ft | 127 kts | 281° |
| 2026-05-03 20:24 | 37.00503 | -7.90002 | 983 ft | 124 kts | 281° |
| 2026-05-03 20:24 | 37.00660 | -7.91065 | 833 ft | 126 kts | 280° |
| 2026-05-03 20:24 | 37.00815 | -7.92140 | 651 ft | 125 kts | 277° |
| 2026-05-03 20:24 | 37.00968 | -7.93195 | 476 ft | 121 kts | 277° |
| 2026-05-03 20:25 | 37.01110 | -7.94219 | 346 ft | 119 kts | 278° |
| 2026-05-03 20:25 | 37.01262 | -7.95271 | 184 ft | 127 kts | 277° |
| 2026-05-03 20:25 | 37.01415 | -7.96360 | 32 ft | 121 kts | 278° |
| 2026-05-03 20:25 | 37.01539 | -7.97241 | 19 ft | 80 kts | 281° |
| 2026-05-03 20:26 | 37.01609 | -7.97740 | 19 ft | 46 kts | 280° |
| 2026-05-03 20:26 | 37.01689 | -7.98092 | 22 ft | 39 kts | 302° |
| 2026-05-03 20:26 | 37.01826 | -7.98220 | 22 ft | 14 kts | 42° |
| 2026-05-03 20:26 | 37.01848 | -7.98134 | 21 ft | 9 kts | 110° |
| 2026-05-03 20:27 | 37.01836 | -7.98061 | 20 ft | 8 kts | 98° |
| 2026-05-03 20:27 | 37.01826 | -7.97990 | 20 ft | 8 kts | 100° |
| 2026-05-03 20:27 | 37.01817 | -7.97923 | 20 ft | 8 kts | 100° |
| 2026-05-03 20:27 | 37.01800 | -7.97804 | 23 ft | 19 kts | 99° |
| 2026-05-03 20:28 | 37.01776 | -7.97644 | 20 ft | 18 kts | 99° |
| 2026-05-03 20:28 | 37.01757 | -7.97492 | 23 ft | 17 kts | 99° |
| 2026-05-03 20:28 | 37.01735 | -7.97335 | 20 ft | 21 kts | 101° |
| 2026-05-03 20:28 | 37.01711 | -7.97163 | 20 ft | 19 kts | 100° |
| 2026-05-03 20:29 | 37.01686 | -7.97003 | 21 ft | 19 kts | 100° |
| 2026-05-03 20:29 | 37.01717 | -7.96901 | 20 ft | 13 kts | 13° |
| 2026-05-03 20:29 | 37.01807 | -7.96877 | 20 ft | 13 kts | 22° |
| 2026-05-03 20:29 | 37.01830 | -7.96784 | 20 ft | 10 kts | 62° |
| 2026-05-03 20:30 | 37.01880 | -7.96775 | 20 ft | 7 kts | 7° |
| 2026-05-03 20:30 | 37.01907 | -7.96770 | 20 ft | 0 kts | 9° |